Time;durP1;ratioP1;P1;durP2;ratioP2;P2;SDS_P1;SDS_P2;PMS_P1;PMS_P2;Temp;Humidity;BMP_temperature;BMP_pressure;BME280_temperature;BME280_humidity;BME280_pressure;Samples;Min_cycle;Max_cycle;Signal;HPM_P1;HPM_P2
2021/04/25 00:01:22;;;;;;;7.47;6.47;;;13.30;38.70;;;;;;5053069;28;20676;-50
2021/04/25 00:03:49;;;;;;;9.30;6.40;;;13.30;38.70;;;;;;5053404;28;20630;-51
2021/04/25 00:06:15;;;;;;;11.17;7.87;;;13.20;38.70;;;;;;5034703;28;20971;-51
2021/04/25 00:08:42;;;;;;;8.93;6.70;;;13.20;38.80;;;;;;5052440;28;21252;-50
2021/04/25 00:11:09;;;;;;;8.00;7.10;;;13.20;38.90;;;;;;5052743;28;20630;-50
2021/04/25 00:13:36;;;;;;;10.50;5.90;;;13.20;38.90;;;;;;5053242;28;20669;-51
2021/04/25 00:16:03;;;;;;;10.43;7.67;;;13.20;38.90;;;;;;5053008;28;20792;-51
2021/04/25 00:18:30;;;;;;;12.10;6.40;;;13.20;38.90;;;;;;5052199;28;20688;-51
2021/04/25 00:20:57;;;;;;;8.57;6.53;;;13.20;39.00;;;;;;5053192;28;21033;-51
2021/04/25 00:23:24;;;;;;;9.17;7.00;;;13.10;39.00;;;;;;5052226;28;21155;-51
2021/04/25 00:25:51;;;;;;;9.17;6.30;;;13.10;39.10;;;;;;5052927;28;20752;-51
2021/04/25 00:28:18;;;;;;;8.10;5.73;;;13.00;39.20;;;;;;5052884;28;20630;-51
2021/04/25 00:30:45;;;;;;;7.70;5.87;;;13.00;39.20;;;;;;5052609;28;20629;-51
2021/04/25 00:33:11;;;;;;;6.20;5.43;;;13.00;39.20;;;;;;5045703;28;20689;-51
2021/04/25 00:35:39;;;;;;;6.93;5.90;;;13.00;39.90;;;;;;5052657;28;21037;-51
2021/04/25 00:38:06;;;;;;;10.30;7.30;;;12.90;40.00;;;;;;5052277;28;20658;-51
2021/04/25 00:40:32;;;;;;;7.10;6.33;;;13.00;40.00;;;;;;5052204;28;20995;-51
2021/04/25 00:42:59;;;;;;;7.57;5.80;;;12.90;40.50;;;;;;5048696;28;20650;-51
2021/04/25 00:45:26;;;;;;;7.57;6.00;;;12.90;41.00;;;;;;5040883;28;20622;-51
2021/04/25 00:47:53;;;;;;;6.93;5.90;;;12.90;40.50;;;;;;5051926;28;20792;-51
2021/04/25 00:50:20;;;;;;;11.43;6.83;;;12.90;40.20;;;;;;5051469;28;20626;-51
2021/04/25 00:52:48;;;;;;;9.77;6.63;;;12.90;40.20;;;;;;5052414;28;21005;-51
2021/04/25 00:55:16;;;;;;;7.60;5.93;;;12.90;40.50;;;;;;5052071;28;20619;-51
2021/04/25 00:57:43;;;;;;;8.47;6.60;;;12.80;40.40;;;;;;5034110;28;20662;-51
2021/04/25 01:00:11;;;;;;;8.13;6.40;;;12.90;40.50;;;;;;5052001;28;20699;-51
2021/04/25 01:02:39;;;;;;;12.07;6.40;;;12.80;40.60;;;;;;5051320;28;20622;-51
2021/04/25 01:05:07;;;;;;;16.43;6.97;;;12.80;40.50;;;;;;5052216;28;20652;-51
2021/04/25 01:07:33;;;;;;;9.97;6.90;;;12.80;40.40;;;;;;5051462;28;20673;-51
2021/04/25 01:10:01;;;;;;;7.07;6.37;;;12.80;40.70;;;;;;5051961;28;20688;-51
2021/04/25 01:12:28;;;;;;;8.70;6.17;;;12.70;40.60;;;;;;5048180;28;20708;-51
2021/04/25 01:14:55;;;;;;;6.33;5.73;;;12.80;40.60;;;;;;5051897;28;20660;-51
2021/04/25 01:17:21;;;;;;;11.40;6.20;;;12.70;40.20;;;;;;5051882;28;21237;-50
2021/04/25 01:19:48;;;;;;;8.27;5.70;;;12.70;40.30;;;;;;5051857;28;21244;-50
2021/04/25 01:22:16;;;;;;;8.63;5.50;;;12.60;40.20;;;;;;5047762;28;21225;-50
2021/04/25 01:24:42;;;;;;;10.10;6.80;;;12.60;40.20;;;;;;5032367;28;20635;-50
2021/04/25 01:27:09;;;;;;;8.73;6.50;;;12.50;40.20;;;;;;5031151;28;20655;-51
2021/04/25 01:29:36;;;;;;;12.27;7.10;;;12.50;40.50;;;;;;5034470;28;20622;-50
2021/04/25 01:32:04;;;;;;;7.77;6.87;;;12.40;40.30;;;;;;5050729;28;20703;-50
2021/04/25 01:34:30;;;;;;;11.27;5.40;;;12.40;40.50;;;;;;5051525;28;20675;-50
2021/04/25 01:36:57;;;;;;;10.23;6.10;;;12.40;40.70;;;;;;5040740;28;21063;-50
2021/04/25 01:39:25;;;;;;;8.13;5.90;;;12.40;40.60;;;;;;5031607;28;21224;-50
2021/04/25 01:41:52;;;;;;;8.10;6.70;;;12.30;40.60;;;;;;5031793;28;20619;-50
2021/04/25 01:44:18;;;;;;;7.83;5.80;;;12.20;40.70;;;;;;5040854;28;20681;-50
2021/04/25 01:46:45;;;;;;;9.20;6.53;;;12.20;40.90;;;;;;5047966;28;20688;-50
2021/04/25 01:49:12;;;;;;;9.60;6.00;;;12.20;41.00;;;;;;5049026;28;20634;-50
2021/04/25 01:51:39;;;;;;;8.17;6.93;;;12.10;41.10;;;;;;5051239;28;20715;-50
2021/04/25 01:54:06;;;;;;;9.10;6.60;;;12.20;41.30;;;;;;5031521;28;20649;-50
2021/04/25 01:56:34;;;;;;;7.50;6.80;;;12.20;41.30;;;;;;5031608;28;20667;-51
2021/04/25 01:59:01;;;;;;;10.37;6.70;;;12.20;41.60;;;;;;5045687;28;20634;-50
2021/04/25 02:01:27;;;;;;;9.10;7.20;;;12.20;41.30;;;;;;5051249;28;20819;-50
2021/04/25 02:03:54;;;;;;;8.37;6.77;;;12.10;40.90;;;;;;5051052;28;20671;-51
2021/04/25 02:06:21;;;;;;;12.20;7.20;;;12.10;41.10;;;;;;5051367;28;20658;-50
2021/04/25 02:08:48;;;;;;;10.00;7.33;;;12.00;41.50;;;;;;5050098;28;20669;-51
2021/04/25 02:11:15;;;;;;;8.60;7.53;;;12.00;41.20;;;;;;5051130;28;20688;-51
2021/04/25 02:13:42;;;;;;;9.43;6.83;;;11.90;41.30;;;;;;5050789;28;20704;-51
2021/04/25 02:16:09;;;;;;;10.73;8.20;;;11.90;41.70;;;;;;5054847;28;20646;-51
2021/04/25 02:18:36;;;;;;;11.80;7.73;;;11.90;42.00;;;;;;5055143;28;20650;-51
2021/04/25 02:21:02;;;;;;;7.40;6.20;;;11.90;42.00;;;;;;5054936;28;20623;-50
2021/04/25 02:23:29;;;;;;;7.40;5.93;;;12.00;42.10;;;;;;5054886;28;20667;-50
2021/04/25 02:25:56;;;;;;;6.60;5.70;;;12.00;42.10;;;;;;5040337;28;20630;-50
2021/04/25 02:28:23;;;;;;;8.10;6.93;;;12.00;41.90;;;;;;5034901;28;20689;-51
2021/04/25 02:30:50;;;;;;;7.10;6.17;;;12.00;42.10;;;;;;5043949;28;20625;-50
2021/04/25 02:33:17;;;;;;;8.93;6.57;;;12.00;41.60;;;;;;5054994;28;21291;-50
2021/04/25 02:35:44;;;;;;;14.43;7.10;;;12.00;41.60;;;;;;5054764;28;20633;-51
2021/04/25 02:38:11;;;;;;;7.50;5.63;;;11.90;41.50;;;;;;5054131;28;20629;-49
2021/04/25 02:40:37;;;;;;;10.73;6.90;;;11.90;41.80;;;;;;5054353;28;20629;-51
2021/04/25 02:43:04;;;;;;;8.60;6.67;;;11.90;41.70;;;;;;5054249;28;20675;-51
2021/04/25 02:45:31;;;;;;;11.43;7.40;;;11.80;41.50;;;;;;5055212;28;20626;-50
2021/04/25 02:47:59;;;;;;;10.80;7.03;;;11.80;41.50;;;;;;5054092;28;20679;-51
2021/04/25 02:50:27;;;;;;;7.10;6.40;;;11.70;41.80;;;;;;5054490;28;20626;-51
2021/04/25 02:52:54;;;;;;;12.50;8.07;;;11.70;41.90;;;;;;5054568;28;21276;-51
2021/04/25 02:55:21;;;;;;;9.40;6.87;;;11.60;41.90;;;;;;5054390;28;20634;-51
2021/04/25 02:57:47;;;;;;;9.13;6.30;;;11.60;42.10;;;;;;5053246;28;20665;-50
2021/04/25 03:00:16;;;;;;;7.53;6.80;;;11.60;42.10;;;;;;5054050;28;20632;-51
2021/04/25 03:02:42;;;;;;;6.63;6.03;;;11.60;42.30;;;;;;5054337;28;20614;-51
2021/04/25 03:05:11;;;;;;;9.03;6.87;;;11.50;42.00;;;;;;5054070;28;20630;-50
2021/04/25 03:07:38;;;;;;;7.20;5.60;;;11.50;42.00;;;;;;5054452;28;20691;-50
2021/04/25 03:10:05;;;;;;;8.53;7.30;;;11.40;42.10;;;;;;5054009;28;21178;-50
2021/04/25 03:12:32;;;;;;;10.70;6.90;;;11.40;42.10;;;;;;5054255;28;21215;-51
2021/04/25 03:14:59;;;;;;;7.70;6.83;;;11.30;42.10;;;;;;5052048;28;20644;-50
2021/04/25 03:17:26;;;;;;;9.70;7.03;;;11.20;42.20;;;;;;5053664;28;20720;-51
2021/04/25 03:19:52;;;;;;;9.20;6.87;;;11.10;42.30;;;;;;5053969;28;20711;-50
2021/04/25 03:22:20;;;;;;;9.60;6.23;;;11.10;42.60;;;;;;5054198;28;20614;-50
2021/04/25 03:24:47;;;;;;;11.70;7.50;;;11.10;42.70;;;;;;5054131;28;20620;-50
2021/04/25 03:27:14;;;;;;;7.27;5.70;;;11.10;42.60;;;;;;5053335;28;20661;-50
2021/04/25 03:29:40;;;;;;;10.70;6.97;;;11.00;42.70;;;;;;5053564;28;20662;-50
2021/04/25 03:32:07;;;;;;;10.47;7.27;;;10.90;42.50;;;;;;5036513;28;20622;-50
2021/04/25 03:34:34;;;;;;;7.50;5.47;;;10.80;42.70;;;;;;5046834;28;20699;-50
2021/04/25 03:37:01;;;;;;;8.70;6.40;;;10.80;42.80;;;;;;5053489;28;21067;-50
2021/04/25 03:39:29;;;;;;;7.53;5.83;;;10.80;42.90;;;;;;5043571;28;21052;-50
2021/04/25 03:41:55;;;;;;;8.00;5.30;;;10.80;43.00;;;;;;5033671;28;20626;-50
2021/04/25 03:44:22;;;;;;;8.80;6.40;;;10.80;43.10;;;;;;5033798;28;20626;-50
2021/04/25 03:46:49;;;;;;;9.63;5.97;;;10.80;43.00;;;;;;5050949;28;20722;-50
2021/04/25 03:49:20;;;;;;;8.53;7.23;;;10.80;42.90;;;;;;5048425;28;20633;-50
2021/04/25 03:51:47;;;;;;;12.60;6.10;;;10.70;42.80;;;;;;5039062;28;20688;-50
2021/04/25 03:54:14;;;;;;;9.67;6.40;;;10.70;42.90;;;;;;5032986;28;21272;-50
2021/04/25 03:56:42;;;;;;;6.13;5.13;;;10.70;42.90;;;;;;5033239;28;20711;-49
2021/04/25 03:59:08;;;;;;;7.97;5.53;;;10.60;43.00;;;;;;5033163;28;20672;-49
2021/04/25 04:01:35;;;;;;;5.63;4.97;;;10.60;42.90;;;;;;5033332;28;20630;-50
2021/04/25 04:04:02;;;;;;;6.97;5.50;;;10.60;43.00;;;;;;5039193;28;21023;-51
2021/04/25 04:06:29;;;;;;;8.30;6.43;;;10.60;43.10;;;;;;5053452;28;20695;-50
2021/04/25 04:08:56;;;;;;;7.83;7.03;;;10.50;42.90;;;;;;5052890;28;20641;-51
2021/04/25 04:11:23;;;;;;;7.90;6.43;;;10.50;43.10;;;;;;5053211;28;20687;-50
2021/04/25 04:13:50;;;;;;;12.77;5.10;;;10.40;42.90;;;;;;5053226;28;20704;-50
2021/04/25 04:16:18;;;;;;;6.50;5.00;;;10.40;43.00;;;;;;5052838;28;20711;-50
2021/04/25 04:18:45;;;;;;;8.20;5.40;;;10.40;43.10;;;;;;5051869;28;20629;-50
2021/04/25 04:21:11;;;;;;;5.17;4.40;;;10.40;43.10;;;;;;5033580;28;20634;-50
2021/04/25 04:23:38;;;;;;;7.63;4.80;;;10.40;42.90;;;;;;5033225;28;20650;-51
2021/04/25 04:26:05;;;;;;;8.00;5.00;;;10.40;43.00;;;;;;5032802;28;20654;-50
2021/04/25 04:28:31;;;;;;;7.17;5.10;;;10.40;43.20;;;;;;5032740;28;20699;-50
2021/04/25 04:30:59;;;;;;;6.17;4.47;;;10.30;42.90;;;;;;5034349;28;20684;-50
2021/04/25 04:33:26;;;;;;;8.73;5.97;;;10.30;42.80;;;;;;5032562;28;20661;-50
2021/04/25 04:35:52;;;;;;;5.00;4.57;;;10.30;43.20;;;;;;5052160;28;20676;-51
2021/04/25 04:38:19;;;;;;;9.20;5.17;;;10.30;43.10;;;;;;5051587;28;20636;-51
2021/04/25 04:40:46;;;;;;;8.80;5.40;;;10.30;43.00;;;;;;5033453;28;20642;-50
2021/04/25 04:43:13;;;;;;;4.53;4.13;;;10.20;42.80;;;;;;5032543;28;20658;-50
2021/04/25 04:45:39;;;;;;;7.97;4.63;;;10.30;42.90;;;;;;5045020;28;20671;-50
2021/04/25 04:48:08;;;;;;;8.80;4.50;;;10.30;42.80;;;;;;5052498;28;20702;-51
2021/04/25 04:50:34;;;;;;;4.87;4.30;;;10.20;42.80;;;;;;5051905;28;20633;-50
2021/04/25 04:53:01;;;;;;;6.43;4.97;;;10.20;42.90;;;;;;5052038;28;20693;-50
2021/04/25 04:55:28;;;;;;;6.57;4.93;;;10.20;43.10;;;;;;5052154;28;20629;-50
2021/04/25 04:57:54;;;;;;;5.60;4.20;;;10.20;43.00;;;;;;5051465;28;20669;-49
2021/04/25 05:00:21;;;;;;;6.40;4.00;;;10.20;43.00;;;;;;5051347;28;20637;-50
2021/04/25 05:02:48;;;;;;;6.80;3.50;;;10.20;43.00;;;;;;5047426;28;20692;-50
2021/04/25 05:05:16;;;;;;;8.77;5.10;;;10.20;42.80;;;;;;5052584;28;21027;-49
2021/04/25 05:07:43;;;;;;;6.73;4.67;;;10.20;42.90;;;;;;5051223;28;20726;-49
2021/04/25 05:10:10;;;;;;;6.10;4.13;;;10.20;43.10;;;;;;5052132;28;20711;-49
2021/04/25 05:12:37;;;;;;;3.90;3.60;;;10.20;42.90;;;;;;5051115;28;20637;-50
2021/04/25 05:15:05;;;;;;;4.93;3.77;;;10.20;42.80;;;;;;5052004;28;20636;-51
2021/04/25 05:17:32;;;;;;;5.77;4.03;;;10.20;42.70;;;;;;5051618;28;20719;-50
2021/04/25 05:19:58;;;;;;;10.03;4.50;;;10.20;42.50;;;;;;5051159;28;20651;-50
2021/04/25 05:22:26;;;;;;;8.37;3.90;;;10.10;42.50;;;;;;5051662;28;20683;-50
2021/04/25 05:24:53;;;;;;;6.50;3.90;;;10.20;42.50;;;;;;5051697;28;20621;-51
2021/04/25 05:27:19;;;;;;;4.13;3.73;;;10.20;42.60;;;;;;5051535;28;21208;-50
2021/04/25 05:29:47;;;;;;;3.83;3.53;;;10.30;42.70;;;;;;5051252;28;20670;-50
2021/04/25 05:32:14;;;;;;;3.77;3.30;;;10.30;42.80;;;;;;5051573;28;20629;-50
2021/04/25 05:34:41;;;;;;;5.60;3.40;;;10.30;42.30;;;;;;5051302;28;20656;-49
2021/04/25 05:37:07;;;;;;;3.30;2.93;;;10.30;42.20;;;;;;5044341;28;21304;-50
2021/04/25 05:39:35;;;;;;;3.80;3.27;;;10.30;42.20;;;;;;5031654;28;20684;-50
2021/04/25 05:42:02;;;;;;;7.50;3.40;;;10.40;42.40;;;;;;5031942;28;21028;-50
2021/04/25 05:44:30;;;;;;;6.00;3.87;;;10.40;42.20;;;;;;5033068;28;20613;-50
2021/04/25 05:46:57;;;;;;;3.80;3.50;;;10.40;42.20;;;;;;5050805;28;21013;-51
2021/04/25 05:49:23;;;;;;;3.13;2.80;;;10.40;42.30;;;;;;5050404;28;21035;-51
2021/04/25 05:51:50;;;;;;;6.23;3.30;;;10.50;42.30;;;;;;5051515;28;21038;-50
2021/04/25 05:54:17;;;;;;;5.13;3.67;;;10.50;42.40;;;;;;5051238;28;20708;-51
2021/04/25 05:56:44;;;;;;;6.40;3.00;;;10.50;41.60;;;;;;5051127;28;20658;-51
2021/04/25 05:59:11;;;;;;;4.33;3.93;;;10.50;41.50;;;;;;5051028;28;20622;-52
2021/04/25 06:01:38;;;;;;;5.20;3.27;;;10.50;41.80;;;;;;5050322;28;20626;-51
2021/04/25 06:04:05;;;;;;;4.83;3.20;;;10.50;41.70;;;;;;5051030;28;20614;-51
2021/04/25 06:06:32;;;;;;;5.93;3.30;;;10.60;41.60;;;;;;5051388;28;21206;-51
2021/04/25 06:08:59;;;;;;;4.73;3.47;;;10.60;41.50;;;;;;5047913;28;21171;-51
2021/04/25 06:11:26;;;;;;;4.37;3.20;;;10.60;41.60;;;;;;5047263;28;21170;-51
2021/04/25 06:13:53;;;;;;;3.97;2.37;;;10.60;41.60;;;;;;5050854;28;20694;-52
2021/04/25 06:16:20;;;;;;;4.07;2.97;;;10.60;41.70;;;;;;5050766;28;20694;-52
2021/04/25 06:18:47;;;;;;;4.40;3.10;;;10.60;41.80;;;;;;5049451;28;20687;-51
2021/04/25 06:21:13;;;;;;;4.53;2.80;;;10.70;41.90;;;;;;5051249;28;20614;-52
2021/04/25 06:23:40;;;;;;;5.60;3.03;;;10.70;42.20;;;;;;5051203;28;21228;-52
2021/04/25 06:26:07;;;;;;;7.33;3.30;;;10.70;41.50;;;;;;5051058;28;20661;-52
2021/04/25 06:28:34;;;;;;;4.30;3.10;;;10.80;41.30;;;;;;5050833;28;20638;-52
2021/04/25 06:31:01;;;;;;;4.53;3.57;;;10.80;41.20;;;;;;5051605;28;20622;-49
2021/04/25 06:33:28;;;;;;;5.43;3.93;;;11.00;41.30;;;;;;5046853;28;20651;-52
2021/04/25 06:35:55;;;;;;;6.03;3.20;;;11.10;41.20;;;;;;5048105;28;21164;-51
2021/04/25 06:38:22;;;;;;;4.90;3.10;;;11.20;41.20;;;;;;5050380;28;20646;-51
2021/04/25 06:40:49;;;;;;;5.10;3.43;;;11.40;40.70;;;;;;5051238;28;20672;-51
2021/04/25 06:43:16;;;;;;;7.07;3.70;;;11.50;40.70;;;;;;5050807;28;20622;-51
2021/04/25 06:45:43;;;;;;;5.20;3.30;;;11.70;40.40;;;;;;5050895;28;20626;-51
2021/04/25 06:48:11;;;;;;;5.17;2.83;;;11.80;40.20;;;;;;5051062;28;20653;-50
2021/04/25 06:50:37;;;;;;;3.80;3.00;;;12.00;40.20;;;;;;5050076;28;20628;-50
2021/04/25 06:53:04;;;;;;;8.47;5.20;;;12.10;39.80;;;;;;5051111;28;21087;-49
2021/04/25 06:55:31;;;;;;;4.53;3.37;;;12.30;39.70;;;;;;5050843;28;20679;-50
2021/04/25 06:57:57;;;;;;;6.67;3.50;;;12.50;39.10;;;;;;5050351;28;20719;-50
2021/04/25 07:00:25;;;;;;;3.23;2.60;;;12.60;38.60;;;;;;5050575;28;20627;-50
2021/04/25 07:02:53;;;;;;;3.87;3.57;;;12.80;38.60;;;;;;5048503;28;20622;-50
2021/04/25 07:05:21;;;;;;;5.20;3.73;;;13.00;38.10;;;;;;5053113;28;20660;-50
2021/04/25 07:07:47;;;;;;;4.27;3.90;;;13.10;37.80;;;;;;5034062;28;20651;-50
2021/04/25 07:10:14;;;;;;;4.50;3.70;;;13.20;37.90;;;;;;5034735;28;20631;-50
2021/04/25 07:12:42;;;;;;;5.60;3.20;;;13.20;37.50;;;;;;5034179;28;20705;-50
2021/04/25 07:15:09;;;;;;;5.30;4.07;;;13.40;37.50;;;;;;5046725;28;20695;-50
2021/04/25 07:17:36;;;;;;;8.10;3.50;;;13.50;37.50;;;;;;5056185;28;20750;-50
2021/04/25 07:20:03;;;;;;;4.00;3.53;;;13.60;37.30;;;;;;5053785;28;20634;-50
2021/04/25 07:22:31;;;;;;;10.80;4.10;;;13.80;37.10;;;;;;5054063;28;20634;-50
2021/04/25 07:24:58;;;;;;;4.20;2.60;;;13.80;36.50;;;;;;5053917;28;20969;-50
2021/04/25 07:27:24;;;;;;;3.10;2.80;;;13.90;36.50;;;;;;5046034;28;21064;-50
2021/04/25 07:29:51;;;;;;;6.47;3.13;;;14.00;36.50;;;;;;5054001;28;20683;-50
2021/04/25 07:32:18;;;;;;;7.40;3.90;;;14.20;36.70;;;;;;5054197;28;20626;-50
2021/04/25 07:34:45;;;;;;;2.77;2.30;;;14.20;36.20;;;;;;5053875;28;20661;-50
2021/04/25 07:37:11;;;;;;;6.57;3.50;;;14.40;36.20;;;;;;5038636;28;20697;-51
2021/04/25 07:39:39;;;;;;;6.23;3.60;;;14.50;36.00;;;;;;5034095;28;20681;-51
2021/04/25 07:42:07;;;;;;;5.20;3.07;;;14.70;35.80;;;;;;5033766;28;20688;-50
2021/04/25 07:44:34;;;;;;;4.37;3.00;;;14.90;35.70;;;;;;5034930;28;20685;-51
2021/04/25 07:47:01;;;;;;;4.53;3.03;;;15.10;35.50;;;;;;5052854;28;20744;-50
2021/04/25 07:49:28;;;;;;;4.67;2.93;;;15.30;35.70;;;;;;5053169;28;21170;-51
2021/04/25 07:51:55;;;;;;;5.87;3.77;;;15.50;35.40;;;;;;5049639;28;20626;-50
2021/04/25 07:54:22;;;;;;;4.77;3.40;;;15.70;34.70;;;;;;5033298;28;20666;-51
2021/04/25 07:56:49;;;;;;;3.40;2.83;;;15.80;34.40;;;;;;5040364;28;20716;-51
2021/04/25 07:59:16;;;;;;;4.00;3.13;;;16.00;34.40;;;;;;5053445;28;20621;-51
2021/04/25 08:01:43;;;;;;;3.80;2.67;;;16.10;34.00;;;;;;5053144;28;21264;-51
2021/04/25 08:04:09;;;;;;;7.13;3.93;;;16.20;33.80;;;;;;5053080;28;20622;-51
2021/04/25 08:06:36;;;;;;;5.87;3.37;;;16.20;33.80;;;;;;5053177;28;20645;-51
2021/04/25 08:09:03;;;;;;;4.40;3.50;;;16.20;33.40;;;;;;5052044;28;20685;-51
2021/04/25 08:11:30;;;;;;;5.63;3.13;;;16.30;33.70;;;;;;5053164;28;20653;-51
2021/04/25 08:13:58;;;;;;;7.87;3.90;;;16.40;33.60;;;;;;5053088;28;21186;-51
2021/04/25 08:16:25;;;;;;;3.83;3.47;;;16.50;33.60;;;;;;5052572;28;21280;-51
2021/04/25 08:18:51;;;;;;;6.40;3.50;;;16.70;33.10;;;;;;5053517;28;20680;-50
2021/04/25 08:21:18;;;;;;;2.97;2.73;;;16.80;32.50;;;;;;5053063;28;20626;-51
2021/04/25 08:23:45;;;;;;;8.40;3.37;;;16.90;32.60;;;;;;5052659;28;20618;-51
2021/04/25 08:26:12;;;;;;;9.87;5.00;;;17.00;32.50;;;;;;5052780;28;20646;-51
2021/04/25 08:28:38;;;;;;;4.10;3.80;;;17.10;32.30;;;;;;5052540;28;21040;-51
2021/04/25 08:31:06;;;;;;;5.20;3.57;;;17.20;32.40;;;;;;5052844;28;20672;-51
2021/04/25 08:33:33;;;;;;;5.87;3.83;;;17.20;32.10;;;;;;5052565;28;21303;-51
2021/04/25 08:36:00;;;;;;;3.93;3.50;;;17.20;32.00;;;;;;5051924;28;20618;-51
2021/04/25 08:38:27;;;;;;;5.50;4.50;;;17.20;32.10;;;;;;5052033;28;20680;-51
2021/04/25 08:40:53;;;;;;;7.30;3.43;;;17.30;32.20;;;;;;5034933;28;20626;-51
2021/04/25 08:43:20;;;;;;;6.03;4.07;;;17.30;32.10;;;;;;5052164;28;20688;-51
2021/04/25 08:45:50;;;;;;;4.20;3.80;;;17.20;32.20;;;;;;5032628;28;20638;-51
2021/04/25 08:48:17;;;;;;;8.53;4.63;;;17.20;32.30;;;;;;5042319;28;21010;-51
2021/04/25 08:50:44;;;;;;;5.90;3.87;;;17.20;32.60;;;;;;5052701;28;20688;-51
2021/04/25 08:53:12;;;;;;;6.83;4.23;;;17.30;32.20;;;;;;5035520;28;21172;-51
2021/04/25 08:55:39;;;;;;;5.50;3.80;;;17.40;32.40;;;;;;5032662;28;20693;-51
2021/04/25 08:58:06;;;;;;;6.13;4.37;;;17.60;32.10;;;;;;5035592;28;21062;-51
2021/04/25 09:00:32;;;;;;;4.60;3.80;;;17.80;31.80;;;;;;5052772;28;20661;-51
2021/04/25 09:02:59;;;;;;;4.07;3.63;;;17.90;31.80;;;;;;5051761;28;21190;-51
2021/04/25 09:05:27;;;;;;;11.10;5.00;;;17.90;31.50;;;;;;5052185;28;21002;-51
2021/04/25 09:07:55;;;;;;;4.90;4.27;;;17.80;31.60;;;;;;5051203;28;20690;-50
2021/04/25 09:10:26;;;;;;;6.47;4.53;;;17.70;31.90;;;;;;5052218;28;20991;-51
2021/04/25 09:12:53;;;;;;;5.20;4.47;;;17.50;32.20;;;;;;5034280;28;20683;-51
2021/04/25 09:15:28;;;;;;;7.97;4.27;;;17.30;32.40;;;;;;5051969;28;20731;-51
2021/04/25 09:17:57;;;;;;;7.20;4.37;;;17.40;32.70;;;;;;5050851;28;21131;-51
2021/04/25 09:20:38;;;;;;;6.40;4.00;;;17.40;32.40;;;;;;5051394;28;21069;-50
2021/04/25 09:23:06;;;;;;;7.87;4.93;;;17.50;32.10;;;;;;5052279;28;20672;-50
2021/04/25 09:25:33;;;;;;;8.23;5.50;;;17.40;32.10;;;;;;5051256;28;20968;-51
2021/04/25 09:28:11;;;;;;;9.73;6.00;;;17.30;32.20;;;;;;5051623;28;20674;-51
2021/04/25 09:30:39;;;;;;;7.03;4.40;;;17.20;32.60;;;;;;5049653;28;20630;-51
2021/04/25 09:33:09;;;;;;;6.97;4.47;;;17.30;32.50;;;;;;5031097;28;20631;-51
2021/04/25 09:35:38;;;;;;;5.67;5.03;;;17.30;32.70;;;;;;5033933;28;21253;-51
2021/04/25 09:38:11;;;;;;;6.20;4.43;;;17.30;32.40;;;;;;5065201;28;20687;-51
2021/04/25 09:40:42;;;;;;;7.00;5.60;;;17.30;32.00;;;;;;5060686;28;21022;-51
2021/04/25 09:43:10;;;;;;;8.33;5.60;;;17.50;32.60;;;;;;5044597;28;20683;-51
2021/04/25 09:45:39;;;;;;;5.80;5.30;;;17.80;31.70;;;;;;5032502;28;20623;-51
2021/04/25 09:48:24;;;;;;;5.87;5.33;;;18.20;31.00;;;;;;5049380;28;20646;-51
2021/04/25 09:51:09;;;;;;;6.00;4.97;;;18.80;30.30;;;;;;5052267;28;20630;-51
2021/04/25 09:53:35;;;;;;;6.63;5.20;;;19.40;29.70;;;;;;5046955;28;20679;-51
2021/04/25 09:56:03;;;;;;;7.00;5.43;;;19.70;29.00;;;;;;5045819;28;20717;-52
2021/04/25 09:58:30;;;;;;;7.43;6.23;;;19.90;28.60;;;;;;5033774;28;20635;-51
2021/04/25 10:00:56;;;;;;;6.00;4.80;;;20.20;28.50;;;;;;5046213;28;21024;-51
2021/04/25 10:03:23;;;;;;;5.33;4.73;;;20.50;28.30;;;;;;5031311;28;20635;-49
2021/04/25 10:05:57;;;;;;;6.30;5.60;;;20.70;28.10;;;;;;5031041;28;20623;-51
2021/04/25 10:08:28;;;;;;;9.53;5.40;;;20.80;27.80;;;;;;5031786;28;20657;-51
2021/04/25 10:10:55;;;;;;;4.67;4.30;;;20.80;27.70;;;;;;5039035;28;20626;-51
2021/04/25 10:13:25;;;;;;;7.33;5.03;;;20.80;27.70;;;;;;5051389;28;20634;-51
2021/04/25 10:15:52;;;;;;;7.37;6.03;;;20.90;28.00;;;;;;5040538;28;20721;-52
2021/04/25 10:18:19;;;;;;;7.77;5.83;;;20.90;27.50;;;;;;5047989;28;20626;-51
2021/04/25 10:20:48;;;;;;;5.40;4.67;;;20.80;27.50;;;;;;5056922;28;20638;-52
2021/04/25 10:23:17;;;;;;;7.47;5.17;;;20.70;27.90;;;;;;5034245;28;20629;-52
2021/04/25 10:25:45;;;;;;;7.07;5.03;;;20.60;27.70;;;;;;5050376;28;20637;-52
2021/04/25 10:28:14;;;;;;;5.33;4.90;;;20.70;27.70;;;;;;5043822;28;20630;-52
2021/04/25 10:30:41;;;;;;;5.60;5.10;;;21.10;27.90;;;;;;5049993;28;20626;-52
2021/04/25 10:33:08;;;;;;;6.90;4.57;;;21.40;27.30;;;;;;5050858;28;20637;-50
2021/04/25 10:35:36;;;;;;;7.80;4.77;;;21.70;27.20;;;;;;5034752;28;20685;-51
2021/04/25 10:38:03;;;;;;;6.33;5.70;;;21.70;27.20;;;;;;5055463;28;20697;-51
2021/04/25 10:40:34;;;;;;;7.60;4.70;;;21.60;26.90;;;;;;5040258;28;20677;-51
2021/04/25 10:43:07;;;;;;;7.83;5.50;;;21.50;27.40;;;;;;5041582;28;20689;-51
2021/04/25 10:45:36;;;;;;;6.80;5.27;;;21.50;27.30;;;;;;5034313;28;20669;-51
2021/04/25 10:48:28;;;;;;;5.97;5.13;;;21.40;27.50;;;;;;5047418;28;20851;-50
2021/04/25 10:50:57;;;;;;;9.60;4.87;;;21.10;27.20;;;;;;5042898;28;20642;-50
2021/04/25 10:53:28;;;;;;;6.23;4.90;;;21.00;27.10;;;;;;5054255;28;20622;-51
2021/04/25 10:56:31;;;;;;;16.23;5.73;;;20.90;27.00;;;;;;5053666;28;21198;-50
2021/04/25 10:59:27;;;;;;;7.20;4.93;;;20.90;27.30;;;;;;5053077;28;21185;-50
2021/04/25 11:01:55;;;;;;;7.90;5.47;;;20.70;27.00;;;;;;5065156;28;20630;-51
2021/04/25 11:04:54;;;;;;;5.60;5.00;;;20.40;27.20;;;;;;5020814;28;20689;-51
2021/04/25 11:07:47;;;;;;;7.10;5.47;;;20.20;27.50;;;;;;5033383;28;20679;-51
2021/04/25 11:10:23;;;;;;;7.00;4.30;;;20.20;27.50;;;;;;5016555;28;21234;-51
2021/04/25 11:12:51;;;;;;;7.73;4.53;;;20.80;27.50;;;;;;5044368;28;20630;-51
2021/04/25 11:15:50;;;;;;;5.27;4.43;;;21.70;26.50;;;;;;5054540;28;20645;-52
2021/04/25 11:18:55;;;;;;;10.73;4.30;;;22.60;25.80;;;;;;5033613;28;20622;-52
2021/04/25 11:21:47;;;;;;;5.90;4.30;;;23.00;25.20;;;;;;5036804;28;21054;-52
2021/04/25 11:24:30;;;;;;;6.47;4.90;;;23.20;24.70;;;;;;5053731;28;20622;-52
2021/04/25 11:26:59;;;;;;;7.27;4.67;;;23.40;24.30;;;;;;5035365;28;20646;-51
2021/04/25 11:29:52;;;;;;;8.17;4.43;;;23.70;24.20;;;;;;5034514;28;20634;-52
2021/04/25 11:32:38;;;;;;;6.60;5.30;;;24.00;24.20;;;;;;5051293;28;20613;-52
2021/04/25 11:35:13;;;;;;;6.03;4.37;;;24.00;24.10;;;;;;5053314;28;20720;-52
2021/04/25 11:37:41;;;;;;;6.57;5.30;;;24.30;23.90;;;;;;5052699;28;20692;-51
2021/04/25 11:40:09;;;;;;;6.83;4.63;;;24.70;23.90;;;;;;5052766;28;20683;-52
2021/04/25 11:42:39;;;;;;;5.97;4.50;;;24.90;23.40;;;;;;5053253;28;20776;-51
2021/04/25 11:45:11;;;;;;;5.87;4.70;;;24.70;23.20;;;;;;5053851;28;21012;-50
2021/04/25 11:47:45;;;;;;;5.50;5.00;;;24.30;23.30;;;;;;5052205;28;20657;-50
2021/04/25 11:50:12;;;;;;;13.63;9.93;;;24.00;23.60;;;;;;5053006;28;20653;-50
2021/04/25 11:52:39;;;;;;;6.27;5.77;;;23.90;24.10;;;;;;5054211;28;20672;-52
2021/04/25 11:55:08;;;;;;;6.17;5.20;;;23.80;24.00;;;;;;5052254;28;20689;-50
2021/04/25 11:57:36;;;;;;;6.33;3.77;;;23.60;23.80;;;;;;5024802;28;20696;-50
2021/04/25 12:00:07;;;;;;;5.83;4.57;;;23.60;24.00;;;;;;5040464;28;20632;-51
2021/04/25 12:02:35;;;;;;;4.83;3.60;;;24.10;23.70;;;;;;5032955;28;21205;-50
2021/04/25 12:05:04;;;;;;;5.90;4.40;;;24.60;23.00;;;;;;5052990;28;20626;-51
2021/04/25 12:07:33;;;;;;;5.30;4.40;;;24.80;22.50;;;;;;5049532;28;20654;-51
2021/04/25 12:10:00;;;;;;;7.03;4.70;;;24.80;22.70;;;;;;5049985;28;20638;-51
2021/04/25 12:12:27;;;;;;;6.13;4.43;;;24.80;22.90;;;;;;5049763;28;20625;-51
2021/04/25 12:15:01;;;;;;;7.90;3.90;;;24.40;22.70;;;;;;5050728;28;21192;-50
2021/04/25 12:17:30;;;;;;;5.63;4.60;;;24.00;22.90;;;;;;5037963;28;20667;-51
2021/04/25 12:19:57;;;;;;;5.83;4.00;;;23.60;23.10;;;;;;5032371;28;20657;-51
2021/04/25 12:22:25;;;;;;;4.43;3.90;;;23.60;23.30;;;;;;5033389;28;20693;-51
2021/04/25 12:24:56;;;;;;;7.43;5.30;;;23.80;23.30;;;;;;5033104;28;20677;-51
2021/04/25 12:27:23;;;;;;;5.23;3.70;;;24.00;23.20;;;;;;5059489;28;20707;-51
2021/04/25 12:29:49;;;;;;;5.50;4.10;;;24.10;23.20;;;;;;5051980;28;20687;-51
2021/04/25 12:32:20;;;;;;;6.03;4.50;;;24.20;22.80;;;;;;5052912;28;20648;-52
2021/04/25 12:34:56;;;;;;;4.73;4.00;;;24.30;22.90;;;;;;5052732;28;20638;-51
2021/04/25 12:37:37;;;;;;;7.53;4.13;;;24.30;22.70;;;;;;5052105;28;20670;-51
2021/04/25 12:40:05;;;;;;;5.03;4.10;;;24.10;22.50;;;;;;5047940;28;20626;-51
2021/04/25 12:42:32;;;;;;;5.13;4.60;;;24.00;22.70;;;;;;5032688;28;20662;-52
2021/04/25 12:45:00;;;;;;;7.63;4.07;;;24.00;22.90;;;;;;5032865;28;20670;-51
2021/04/25 12:47:32;;;;;;;4.70;4.17;;;24.00;22.90;;;;;;5052916;28;21080;-52
2021/04/25 12:50:13;;;;;;;5.23;3.57;;;23.90;22.10;;;;;;5051922;28;20671;-51
2021/04/25 12:52:41;;;;;;;3.47;2.97;;;23.70;22.10;;;;;;5051730;28;21208;-52